createdAt,value
2019-02-09T00:02:18.907Z,6.80
2019-02-09T00:04:49.719Z,6.17
2019-02-09T00:07:21.436Z,6.92
2019-02-09T00:09:52.667Z,8.75
2019-02-09T00:12:24.764Z,6.20
2019-02-09T00:14:55.855Z,7.33
2019-02-09T00:17:26.938Z,5.85
2019-02-09T00:19:57.690Z,6.60
2019-02-09T00:22:28.507Z,7.75
2019-02-09T00:24:59.298Z,7.70
2019-02-09T00:27:30.205Z,10.07
2019-02-09T00:30:00.962Z,7.45
2019-02-09T00:32:31.943Z,9.03
2019-02-09T00:35:03.155Z,6.42
2019-02-09T00:37:33.854Z,8.95
2019-02-09T00:40:06.172Z,7.08
2019-02-09T00:42:36.922Z,6.37
2019-02-09T00:45:09.572Z,8.00
2019-02-09T00:47:40.367Z,5.55
2019-02-09T00:50:11.473Z,7.43
2019-02-09T00:52:42.339Z,6.17
2019-02-09T00:55:13.785Z,9.53
2019-02-09T00:57:44.831Z,8.28
2019-02-09T01:00:18.385Z,6.70
2019-02-09T01:02:49.222Z,8.87
2019-02-09T01:05:23.118Z,7.03
2019-02-09T01:07:54.166Z,9.20
2019-02-09T01:10:26.655Z,6.20
2019-02-09T01:12:58.547Z,6.28
2019-02-09T01:15:29.631Z,6.95
2019-02-09T01:18:01.260Z,7.60
2019-02-09T01:20:32.348Z,8.13
2019-02-09T01:23:03.634Z,6.30
2019-02-09T01:25:34.603Z,4.83
2019-02-09T01:28:05.874Z,4.58
2019-02-09T01:30:36.737Z,5.25
2019-02-09T01:33:07.653Z,5.08
2019-02-09T01:35:38.619Z,3.80
2019-02-09T01:38:09.523Z,6.08
2019-02-09T01:40:40.472Z,5.12
2019-02-09T01:43:11.696Z,4.62
2019-02-09T01:45:42.962Z,3.50
2019-02-09T01:48:14.047Z,3.72
2019-02-09T01:50:45.016Z,4.57
2019-02-09T01:53:15.888Z,3.30
2019-02-09T01:55:46.673Z,3.75
2019-02-09T01:58:17.470Z,2.90
2019-02-09T02:01:07.525Z,4.42
2019-02-09T02:03:38.352Z,3.17
2019-02-09T02:06:09.117Z,2.47
2019-02-09T02:08:39.919Z,2.52
2019-02-09T02:11:10.778Z,3.27
2019-02-09T02:13:41.560Z,3.75
2019-02-09T02:16:12.476Z,2.45
2019-02-09T02:18:43.314Z,3.27
2019-02-09T02:21:14.168Z,2.70
2019-02-09T02:23:45.006Z,3.42
2019-02-09T02:26:15.813Z,3.62
2019-02-09T02:28:46.616Z,3.83
2019-02-09T02:31:18.170Z,4.15
2019-02-09T02:33:48.928Z,3.67
2019-02-09T02:36:19.801Z,3.43
2019-02-09T02:38:50.571Z,2.50
2019-02-09T02:41:21.329Z,2.80
2019-02-09T02:43:52.487Z,2.90
2019-02-09T02:46:23.255Z,2.77
2019-02-09T02:48:54.451Z,2.60
2019-02-09T02:51:25.266Z,2.33
2019-02-09T02:53:56.513Z,3.33
2019-02-09T02:56:27.252Z,2.05
2019-02-09T02:58:58.029Z,2.37
2019-02-09T03:01:28.843Z,4.15
2019-02-09T03:03:59.972Z,3.03
2019-02-09T03:06:30.864Z,4.62
2019-02-09T03:09:01.860Z,4.40
2019-02-09T03:11:34.293Z,5.03
2019-02-09T03:14:05.649Z,3.95
2019-02-09T03:16:36.745Z,3.58
2019-02-09T03:19:07.820Z,3.83
2019-02-09T03:21:38.654Z,2.57
2019-02-09T03:24:09.497Z,3.12
2019-02-09T03:26:40.379Z,3.35
2019-02-09T03:29:11.343Z,4.28
2019-02-09T03:31:42.339Z,2.45
2019-02-09T03:34:13.185Z,4.80
2019-02-09T03:36:44.365Z,4.08
2019-02-09T03:39:15.202Z,4.80
2019-02-09T03:41:46.079Z,6.00
2019-02-09T03:44:16.906Z,5.73
2019-02-09T03:46:47.728Z,7.05
2019-02-09T03:49:18.644Z,6.80
2019-02-09T03:51:49.492Z,6.12
2019-02-09T03:54:20.340Z,6.35
2019-02-09T03:56:51.207Z,6.30
2019-02-09T03:59:21.994Z,5.50
2019-02-09T04:01:52.838Z,7.50
2019-02-09T04:04:23.920Z,6.45
2019-02-09T04:06:54.860Z,6.37
2019-02-09T04:09:25.775Z,5.92
2019-02-09T04:11:56.673Z,6.08
2019-02-09T04:14:27.559Z,6.12
2019-02-09T04:16:58.384Z,8.40
2019-02-09T04:19:29.176Z,6.73
2019-02-09T04:22:00.208Z,6.92
2019-02-09T04:24:31.051Z,7.00
2019-02-09T04:27:01.775Z,5.55
2019-02-09T04:29:32.809Z,5.22
2019-02-09T04:32:03.685Z,3.67
2019-02-09T04:34:34.438Z,8.00
2019-02-09T04:37:05.340Z,7.37
2019-02-09T04:39:36.192Z,7.35
2019-02-09T04:42:07.375Z,6.70
2019-02-09T04:44:38.470Z,5.90
2019-02-09T04:47:09.187Z,7.00
2019-02-09T04:49:40.329Z,7.53
2019-02-09T04:52:10.769Z,6.55
2019-02-09T04:54:41.684Z,8.83
2019-02-09T04:57:12.868Z,7.25
2019-02-09T04:59:43.734Z,6.20
2019-02-09T05:02:14.889Z,8.08
2019-02-09T05:04:45.750Z,7.00
2019-02-09T05:07:16.555Z,4.45
2019-02-09T05:09:47.557Z,6.50
2019-02-09T05:12:18.412Z,6.78
2019-02-09T05:14:49.179Z,6.25
2019-02-09T05:17:20.288Z,6.00
2019-02-09T05:19:51.120Z,7.20
2019-02-09T05:22:22.341Z,8.85
2019-02-09T05:24:53.167Z,8.50
2019-02-09T05:27:24.241Z,11.00
2019-02-09T05:29:55.155Z,10.20
2019-02-09T05:32:26.281Z,9.60
2019-02-09T05:34:57.186Z,8.05
2019-02-09T05:37:28.018Z,9.65
2019-02-09T05:39:58.848Z,8.80
2019-02-09T05:42:29.745Z,10.90
2019-02-09T05:45:00.670Z,5.10
2019-02-09T05:47:31.473Z,8.23
2019-02-09T05:50:02.385Z,8.60
2019-02-09T05:52:33.333Z,10.53
2019-02-09T05:55:04.754Z,10.32
2019-02-09T05:57:35.567Z,8.80
2019-02-09T06:00:09.809Z,9.83
2019-02-09T06:02:40.685Z,8.25
2019-02-09T06:05:11.837Z,7.10
2019-02-09T06:07:42.665Z,9.58
2019-02-09T06:10:15.034Z,8.43
2019-02-09T06:12:45.980Z,8.95
2019-02-09T06:15:17.941Z,11.80
2019-02-09T06:17:48.857Z,10.13
2019-02-09T06:20:22.060Z,9.23
2019-02-09T06:22:53.176Z,7.37
2019-02-09T06:25:24.230Z,7.35
2019-02-09T06:27:55.248Z,8.08
2019-02-09T06:30:27.848Z,8.33
2019-02-09T06:32:59.116Z,9.83
2019-02-09T06:35:30.248Z,8.83
2019-02-09T06:38:02.145Z,7.03
2019-02-09T06:40:33.156Z,7.47
2019-02-09T06:43:04.202Z,11.35
2019-02-09T06:45:35.126Z,10.43
2019-02-09T06:48:24.220Z,10.15
2019-02-09T06:50:56.913Z,11.53
2019-02-09T06:53:27.797Z,15.65
2019-02-09T06:55:58.722Z,10.43
2019-02-09T06:58:29.677Z,9.57
2019-02-09T07:01:00.431Z,10.80
2019-02-09T07:03:31.279Z,10.53
2019-02-09T07:06:02.418Z,8.88
2019-02-09T07:08:33.380Z,9.65
2019-02-09T07:11:07.438Z,10.05
2019-02-09T07:13:38.303Z,12.03
2019-02-09T07:16:09.232Z,9.05
2019-02-09T07:18:40.010Z,10.35
2019-02-09T07:21:10.912Z,9.70
2019-02-09T07:23:41.737Z,11.80
2019-02-09T07:26:12.637Z,10.78
2019-02-09T07:28:43.435Z,9.83
2019-02-09T07:31:14.525Z,7.15
2019-02-09T07:33:45.475Z,11.95
2019-02-09T07:36:16.405Z,13.95
2019-02-09T07:38:47.501Z,12.10
2019-02-09T07:41:18.255Z,12.82
2019-02-09T07:43:49.348Z,14.75
2019-02-09T07:46:20.184Z,16.32
2019-02-09T07:48:51.109Z,10.48
2019-02-09T07:51:22.014Z,12.77
2019-02-09T07:53:52.944Z,11.78
2019-02-09T07:56:23.783Z,12.15
2019-02-09T07:58:54.652Z,11.90
2019-02-09T08:01:25.600Z,12.65
2019-02-09T08:03:56.377Z,13.72
2019-02-09T08:06:27.304Z,11.73
2019-02-09T08:08:58.179Z,13.37
2019-02-09T08:11:29.128Z,9.85
2019-02-09T08:13:59.922Z,11.45
2019-02-09T08:16:30.825Z,9.13
2019-02-09T08:19:01.754Z,11.57
2019-02-09T08:21:32.712Z,11.85
2019-02-09T08:24:04.305Z,10.23
2019-02-09T08:26:35.199Z,11.68
2019-02-09T08:29:06.007Z,10.93
2019-02-09T08:31:36.939Z,13.43
2019-02-09T08:34:08.129Z,11.28
2019-02-09T08:36:39.338Z,11.18
2019-02-09T08:39:10.192Z,9.48
2019-02-09T08:41:40.957Z,9.20
2019-02-09T08:44:11.787Z,9.18
2019-02-09T08:46:42.649Z,10.05
2019-02-09T08:49:13.945Z,9.93
2019-02-09T08:51:44.763Z,9.83
2019-02-09T08:54:15.575Z,7.50
2019-02-09T08:56:46.359Z,7.65
2019-02-09T08:59:17.299Z,7.92
2019-02-09T09:01:48.247Z,10.75
2019-02-09T09:04:19.088Z,9.68
2019-02-09T09:06:49.935Z,8.80
2019-02-09T09:09:21.220Z,12.50
2019-02-09T09:11:51.995Z,10.43
2019-02-09T09:14:23.196Z,9.43
2019-02-09T09:16:53.957Z,10.13
2019-02-09T09:19:24.822Z,10.68
2019-02-09T09:21:55.941Z,8.25
2019-02-09T09:24:26.754Z,9.45
2019-02-09T09:26:57.707Z,10.75
2019-02-09T09:29:28.548Z,10.68
2019-02-09T09:31:59.410Z,10.78
2019-02-09T09:34:30.486Z,10.28
2019-02-09T09:37:01.343Z,10.30
2019-02-09T09:39:32.293Z,9.20
2019-02-09T09:42:03.055Z,13.10
2019-02-09T09:44:33.877Z,11.12
2019-02-09T09:47:04.881Z,9.90
2019-02-09T09:49:35.985Z,10.85
2019-02-09T09:52:07.112Z,11.90
2019-02-09T09:54:38.078Z,8.63
2019-02-09T09:57:09.372Z,12.33
2019-02-09T09:59:40.671Z,8.75
2019-02-09T10:02:11.696Z,8.63
2019-02-09T10:04:42.566Z,11.43
2019-02-09T10:07:13.471Z,10.48
2019-02-09T10:09:44.662Z,9.15
2019-02-09T10:12:15.475Z,9.30
2019-02-09T10:14:46.702Z,10.50
2019-02-09T10:17:17.473Z,9.20
2019-02-09T10:19:48.457Z,9.00
2019-02-09T10:22:19.381Z,7.40
2019-02-09T10:24:53.424Z,8.08
2019-02-09T10:27:24.274Z,10.33
2019-02-09T10:29:55.512Z,11.65
2019-02-09T10:32:26.384Z,11.53
2019-02-09T10:34:57.163Z,11.50
2019-02-09T10:37:28.364Z,10.00
2019-02-09T10:39:59.189Z,12.05
2019-02-09T10:42:30.116Z,10.13
2019-02-09T10:45:01.001Z,10.35
2019-02-09T10:47:32.421Z,10.88
2019-02-09T10:50:03.843Z,8.33
2019-02-09T10:52:34.685Z,11.48
2019-02-09T10:55:06.620Z,9.20
2019-02-09T10:57:37.535Z,10.80
2019-02-09T11:00:12.760Z,11.90
2019-02-09T11:02:43.660Z,9.85
2019-02-09T11:05:15.333Z,11.12
2019-02-09T11:07:46.708Z,14.33
2019-02-09T11:10:18.968Z,11.30
2019-02-09T11:12:50.062Z,11.60
2019-02-09T11:15:21.002Z,10.23
2019-02-09T11:17:52.121Z,9.63
2019-02-09T11:20:23.115Z,13.37
2019-02-09T11:22:54.039Z,12.45
2019-02-09T11:25:25.325Z,13.70
2019-02-09T11:27:56.175Z,10.88
2019-02-09T11:30:27.832Z,9.93
2019-02-09T11:33:01.993Z,11.60
2019-02-09T11:35:32.353Z,11.05
2019-02-09T11:38:03.651Z,10.38
2019-02-09T11:40:35.741Z,10.63
2019-02-09T11:43:07.184Z,12.47
2019-02-09T11:45:38.514Z,12.37
2019-02-09T11:48:09.500Z,11.78
2019-02-09T11:50:40.501Z,15.75
2019-02-09T11:53:11.412Z,10.78
2019-02-09T11:55:42.266Z,11.63
2019-02-09T11:58:13.191Z,10.03
2019-02-09T12:00:46.991Z,11.97
2019-02-09T12:03:18.323Z,14.90
2019-02-09T12:05:49.356Z,14.00
2019-02-09T12:08:20.443Z,11.30
2019-02-09T12:10:51.496Z,13.75
2019-02-09T12:13:22.683Z,10.80
2019-02-09T12:15:53.637Z,12.78
2019-02-09T12:18:24.876Z,14.15
2019-02-09T12:20:55.784Z,12.05
2019-02-09T12:23:26.635Z,13.10
2019-02-09T12:25:57.449Z,14.18
2019-02-09T12:28:28.388Z,12.65
2019-02-09T12:30:59.383Z,11.90
2019-02-09T12:33:30.253Z,13.38
2019-02-09T12:36:01.173Z,14.30
2019-02-09T12:38:31.941Z,15.13
2019-02-09T12:41:02.832Z,13.50
2019-02-09T12:43:33.790Z,12.70
2019-02-09T12:46:04.746Z,11.93
2019-02-09T12:48:35.595Z,13.62
2019-02-09T12:51:06.883Z,14.17
2019-02-09T12:53:37.730Z,13.03
2019-02-09T12:56:08.669Z,15.83
2019-02-09T12:58:39.627Z,16.15
2019-02-09T13:01:11.491Z,10.65
2019-02-09T13:03:42.428Z,10.90
2019-02-09T13:06:13.279Z,13.48
2019-02-09T13:08:44.024Z,12.78
2019-02-09T13:11:14.843Z,11.88
2019-02-09T13:13:46.992Z,11.22
2019-02-09T13:16:17.836Z,11.40
2019-02-09T13:18:48.659Z,12.60
2019-02-09T13:21:19.690Z,15.30
2019-02-09T13:23:50.453Z,16.17
2019-02-09T13:26:21.385Z,13.33
2019-02-09T13:28:52.321Z,15.60
2019-02-09T13:31:23.282Z,11.85
2019-02-09T13:33:54.139Z,11.70
2019-02-09T13:36:24.961Z,14.00
2019-02-09T13:38:55.736Z,12.90
2019-02-09T13:41:26.817Z,14.43
2019-02-09T13:43:57.580Z,14.35
2019-02-09T13:46:28.358Z,12.30
2019-02-09T13:48:59.158Z,21.70
2019-02-09T13:51:30.257Z,13.05
2019-02-09T13:54:02.311Z,18.60
2019-02-09T13:56:33.564Z,11.73
2019-02-09T13:59:04.813Z,10.13
2019-02-09T14:01:36.040Z,9.03
2019-02-09T14:04:06.897Z,12.60
2019-02-09T14:06:37.739Z,10.45
2019-02-09T14:09:08.952Z,11.75
2019-02-09T14:11:41.385Z,11.90
2019-02-09T14:14:12.289Z,10.43
2019-02-09T14:16:45.887Z,12.10
2019-02-09T14:19:20.198Z,9.78
2019-02-09T14:21:51.771Z,9.48
2019-02-09T14:24:22.594Z,15.23
2019-02-09T14:26:57.259Z,11.47
2019-02-09T14:29:28.247Z,11.45
2019-02-09T14:31:59.141Z,14.85
2019-02-09T14:34:30.480Z,14.45
2019-02-09T14:37:01.287Z,12.82
2019-02-09T14:39:32.104Z,12.00
2019-02-09T14:42:02.920Z,11.23
2019-02-09T14:44:34.120Z,11.65
2019-02-09T14:47:05.409Z,12.85
2019-02-09T14:49:36.264Z,10.70
2019-02-09T14:52:07.368Z,11.33
2019-02-09T14:54:38.344Z,12.37
2019-02-09T14:57:09.282Z,12.37
2019-02-09T14:59:40.941Z,9.95
2019-02-09T15:02:12.831Z,10.63
2019-02-09T15:04:43.721Z,13.25
2019-02-09T15:07:14.564Z,15.60
2019-02-09T15:09:45.475Z,10.35
2019-02-09T15:12:16.283Z,13.98
2019-02-09T15:15:03.471Z,12.20
2019-02-09T15:17:38.395Z,17.37
2019-02-09T15:20:13.490Z,12.63
2019-02-09T15:22:44.359Z,12.45
2019-02-09T15:25:15.516Z,14.75
2019-02-09T15:27:46.551Z,15.70
2019-02-09T15:30:21.020Z,13.55
2019-02-09T15:32:51.972Z,11.33
2019-02-09T15:35:22.921Z,15.65
2019-02-09T15:37:53.920Z,12.30
2019-02-09T15:40:24.818Z,15.53
2019-02-09T15:42:55.747Z,13.45
2019-02-09T15:45:26.650Z,11.63
2019-02-09T15:47:57.623Z,15.70
2019-02-09T15:50:28.477Z,12.80
2019-02-09T15:52:59.478Z,13.43
2019-02-09T15:55:30.328Z,13.35
2019-02-09T15:58:01.182Z,11.57
2019-02-09T16:00:32.899Z,10.90
2019-02-09T16:03:04.410Z,12.03
2019-02-09T16:05:35.380Z,13.62
2019-02-09T16:08:07.923Z,14.73
2019-02-09T16:10:38.681Z,15.65
2019-02-09T16:13:09.836Z,15.58
2019-02-09T16:15:40.752Z,14.33
2019-02-09T16:18:11.798Z,12.78
2019-02-09T16:20:42.763Z,12.73
2019-02-09T16:23:13.567Z,10.93
2019-02-09T16:25:44.494Z,16.23
2019-02-09T16:28:15.466Z,12.23
2019-02-09T16:30:46.422Z,11.45
2019-02-09T16:33:17.383Z,14.05
2019-02-09T16:35:48.439Z,12.80
2019-02-09T16:38:19.279Z,12.93
2019-02-09T16:40:51.218Z,11.40
2019-02-09T16:43:21.974Z,9.80
2019-02-09T16:45:52.835Z,11.35
2019-02-09T16:48:23.628Z,12.58
2019-02-09T16:50:54.447Z,10.63
2019-02-09T16:53:25.878Z,12.28
2019-02-09T16:55:56.712Z,12.73
2019-02-09T16:58:27.634Z,9.38
2019-02-09T17:00:58.917Z,9.40
2019-02-09T17:03:29.727Z,10.45
2019-02-09T17:06:00.581Z,11.10
2019-02-09T17:08:31.678Z,11.65
2019-02-09T17:11:02.879Z,11.45
2019-02-09T17:13:33.667Z,11.45
2019-02-09T17:16:05.427Z,12.37
2019-02-09T17:18:36.257Z,12.73
2019-02-09T17:21:07.041Z,9.80
2019-02-09T17:23:37.814Z,11.78
2019-02-09T17:26:08.543Z,12.65
2019-02-09T17:28:39.660Z,14.43
2019-02-09T17:31:10.484Z,12.33
2019-02-09T17:33:42.330Z,11.78
2019-02-09T17:36:13.082Z,12.28
2019-02-09T17:38:44.219Z,12.75
2019-02-09T17:41:15.191Z,10.32
2019-02-09T17:43:46.027Z,12.40
2019-02-09T17:46:17.963Z,11.30
2019-02-09T17:48:49.142Z,11.00
2019-02-09T17:51:20.365Z,10.90
2019-02-09T17:53:51.099Z,11.95
2019-02-09T17:56:22.147Z,11.43
2019-02-09T17:58:54.626Z,11.40
2019-02-09T18:01:25.874Z,11.43
2019-02-09T18:03:57.749Z,12.30
2019-02-09T18:06:28.484Z,10.05
2019-02-09T18:08:59.203Z,10.78
2019-02-09T18:11:30.472Z,10.80
2019-02-09T18:14:01.211Z,9.48
2019-02-09T18:16:32.042Z,11.73
2019-02-09T18:19:02.831Z,10.95
2019-02-09T18:21:33.740Z,11.83
2019-02-09T18:24:04.878Z,10.18
2019-02-09T18:26:35.669Z,11.78
2019-02-09T18:29:06.561Z,12.53
2019-02-09T18:31:37.389Z,13.20
2019-02-09T18:34:09.145Z,9.43
2019-02-09T18:36:40.171Z,11.30
2019-02-09T18:39:12.012Z,12.45
2019-02-09T18:41:43.832Z,10.85
2019-02-09T18:44:14.632Z,13.22
2019-02-09T18:46:45.424Z,13.83
2019-02-09T18:49:16.214Z,16.90
2019-02-09T18:51:47.230Z,13.72
2019-02-09T18:54:18.279Z,15.20
2019-02-09T18:56:49.134Z,13.70
2019-02-09T18:59:19.945Z,15.38
2019-02-09T19:01:50.778Z,12.33
2019-02-09T19:04:21.656Z,13.60
2019-02-09T19:06:52.476Z,16.73
2019-02-09T19:09:23.767Z,11.85
2019-02-09T19:11:55.029Z,15.13
2019-02-09T19:14:25.816Z,13.90
2019-02-09T19:16:56.557Z,10.45
2019-02-09T19:19:27.530Z,13.70
2019-02-09T19:21:58.376Z,13.62
2019-02-09T19:24:29.519Z,9.58
2019-02-09T19:27:00.862Z,10.70
2019-02-09T19:29:31.800Z,9.40
2019-02-09T19:32:02.525Z,12.85
2019-02-09T19:34:33.308Z,12.68
2019-02-09T19:37:04.428Z,14.10
2019-02-09T19:39:35.626Z,13.00
2019-02-09T19:42:06.861Z,8.90
2019-02-09T19:44:37.598Z,13.48
2019-02-09T19:47:08.503Z,9.80
2019-02-09T19:49:39.235Z,10.20
2019-02-09T19:52:10.061Z,12.78
2019-02-09T19:54:40.829Z,12.75
2019-02-09T19:57:11.575Z,11.88
2019-02-09T19:59:42.396Z,14.38
2019-02-09T20:02:13.388Z,10.60
2019-02-09T20:04:44.131Z,11.43
2019-02-09T20:07:14.937Z,13.15
2019-02-09T20:09:46.067Z,11.45
2019-02-09T20:12:16.858Z,12.30
2019-02-09T20:14:47.618Z,12.78
2019-02-09T20:17:18.851Z,11.40
2019-02-09T20:19:49.887Z,14.87
2019-02-09T20:22:20.742Z,13.78
2019-02-09T20:24:51.798Z,11.57
2019-02-09T20:27:23.760Z,12.93
2019-02-09T20:29:54.739Z,15.00
2019-02-09T20:32:25.691Z,13.60
2019-02-09T20:34:56.510Z,13.35
2019-02-09T20:37:27.521Z,13.00
2019-02-09T20:39:58.282Z,12.45
2019-02-09T20:42:30.003Z,15.10
2019-02-09T20:45:00.725Z,10.98
2019-02-09T20:47:31.486Z,14.50
2019-02-09T20:50:05.192Z,12.82
2019-02-09T20:52:36.377Z,13.88
2019-02-09T20:55:07.528Z,17.85
2019-02-09T20:57:38.335Z,15.30
2019-02-09T21:00:18.171Z,17.27
2019-02-09T21:02:45.240Z,14.80
2019-02-09T21:05:16.405Z,13.08
2019-02-09T21:07:47.395Z,18.05
2019-02-09T21:10:20.482Z,21.75
2019-02-09T21:12:51.853Z,20.20
2019-02-09T21:15:24.504Z,16.87
2019-02-09T21:17:55.442Z,14.93
2019-02-09T21:20:26.469Z,14.65
2019-02-09T21:22:57.292Z,14.18
2019-02-09T21:25:33.039Z,12.90
2019-02-09T21:28:03.950Z,14.70
2019-02-09T21:30:34.833Z,14.03
2019-02-09T21:33:06.076Z,16.50
2019-02-09T21:35:43.830Z,16.00
2019-02-09T21:38:09.479Z,17.73
2019-02-09T21:40:40.344Z,16.12
2019-02-09T21:43:11.115Z,16.90
2019-02-09T21:45:45.365Z,18.70
2019-02-09T21:48:14.394Z,15.50
2019-02-09T21:50:46.485Z,13.70
2019-02-09T21:53:17.615Z,15.32
2019-02-09T21:55:48.380Z,14.25
2019-02-09T21:58:19.378Z,16.32
2019-02-09T22:00:50.296Z,16.23
2019-02-09T22:03:21.106Z,13.17
2019-02-09T22:05:52.249Z,15.58
2019-02-09T22:08:23.054Z,14.00
2019-02-09T22:10:54.099Z,15.75
2019-02-09T22:13:24.921Z,14.47
2019-02-09T22:15:55.655Z,17.45
2019-02-09T22:18:26.498Z,16.60
2019-02-09T22:20:57.422Z,16.40
2019-02-09T22:23:28.459Z,18.75
2019-02-09T22:25:59.252Z,15.23
2019-02-09T22:28:30.238Z,15.67
2019-02-09T22:31:01.309Z,17.27
2019-02-09T22:33:33.175Z,16.20
2019-02-09T22:36:04.867Z,18.07
2019-02-09T22:38:35.611Z,19.30
2019-02-09T22:41:06.472Z,15.60
2019-02-09T22:43:37.527Z,17.27
2019-02-09T22:46:08.671Z,16.77
2019-02-09T22:48:39.760Z,16.02
2019-02-09T22:51:10.646Z,16.55
2019-02-09T22:53:41.379Z,14.93
2019-02-09T22:56:12.187Z,17.30
2019-02-09T22:58:42.944Z,15.65
2019-02-09T23:01:39.230Z,17.42
2019-02-09T23:04:38.379Z,15.20
2019-02-09T23:07:18.725Z,15.63
2019-02-09T23:09:52.032Z,19.32
2019-02-09T23:12:24.621Z,24.87
2019-02-09T23:15:00.602Z,15.03
2019-02-09T23:17:31.873Z,19.67
2019-02-09T23:20:03.274Z,15.80
2019-02-09T23:22:40.041Z,20.43
2019-02-09T23:25:14.169Z,14.60
2019-02-09T23:27:45.126Z,16.05
2019-02-09T23:30:16.859Z,14.78
2019-02-09T23:32:47.591Z,15.38
2019-02-09T23:35:18.753Z,17.87
2019-02-09T23:37:49.596Z,17.57
2019-02-09T23:40:20.434Z,19.12
2019-02-09T23:42:51.173Z,14.93
2019-02-09T23:45:22.235Z,19.50
2019-02-09T23:47:52.977Z,17.00
2019-02-09T23:50:23.700Z,16.75
2019-02-09T23:52:54.904Z,18.55
2019-02-09T23:55:25.645Z,17.92
2019-02-09T23:57:56.453Z,16.33
